Aviation Digital Data Service (ADDS)

Output produced by METARs form (0623 UTC 23 February 2018)
found at http://aviationweather.gov/adds/metars/
 
KHOU 230528Z 2306/2406 VRB03KT 2SM BR OVC005 
     FM230800 14002KT 1SM BR OVC003 
     FM231500 15009KT 5SM BR VCSH SCT004 OVC007 
     FM231900 16012KT P6SM VCSH OVC015 
     FM240300 15006KT 4SM BR OVC007